Wetterdaten: Sonntag, 11.01.2015
Datum Zeit Temperatur Luftfeuchte Luftdruck Regen Wind Richtung Richtung Taupunkt Windchill Windben
11.01.2015 00:02 9,9 C 71 % 1017,6 hPa 0,0 l/m 9,8 km/h (2 Bft) W-SW 247 4,9 C 6,2 C 8,4 km/h (2 Bft)
11.01.2015 00:07 9,8 C 72 % 1017,6 hPa 0,0 l/m 10,1 km/h (2 Bft) W 270 5,0 C 5,7 C 9,3 km/h (2 Bft)
11.01.2015 00:12 9,8 C 72 % 1017,6 hPa 0,0 l/m 10,8 km/h (2 Bft) SW 225 5,0 C 5,1 C 16,3 km/h (3 Bft)
11.01.2015 00:17 9,8 C 71 % 1017,1 hPa 0,0 l/m 10,6 km/h (2 Bft) W 270 4,8 C 5,2 C 19,3 km/h (3 Bft)
11.01.2015 00:22 9,8 C 71 % 1017,1 hPa 0,0 l/m 10,3 km/h (2 Bft) W-SW 247 4,8 C 5,4 C 11,7 km/h (2 Bft)
11.01.2015 00:27 9,9 C 71 % 1017,1 hPa 0,0 l/m 12,1 km/h (2 Bft) W-SW 247 4,9 C 4,2 C 22,2 km/h (4 Bft)
11.01.2015 00:32 9,9 C 70 % 1017,1 hPa 0,0 l/m 12,7 km/h (3 Bft) W 270 4,7 C 3,7 C 23,3 km/h (4 Bft)
11.01.2015 00:37 9,8 C 70 % 1016,9 hPa 0,0 l/m 12,2 km/h (2 Bft) NW 315 4,6 C 4,1 C 19,6 km/h (3 Bft)
11.01.2015 00:42 9,8 C 70 % 1016,9 hPa 0,0 l/m 12,9 km/h (3 Bft) W 270 4,6 C 3,6 C 15,8 km/h (3 Bft)
11.01.2015 00:47 9,8 C 70 % 1016,9 hPa 0,0 l/m 11,4 km/h (2 Bft) S-SW 202 4,6 C 4,7 C 10,3 km/h (2 Bft)
11.01.2015 00:52 9,8 C 70 % 1016,9 hPa 0,0 l/m 12,1 km/h (2 Bft) NW 315 4,6 C 4,0 C 20,6 km/h (4 Bft)
11.01.2015 00:57 9,9 C 70 % 1016,5 hPa 0,0 l/m 13,4 km/h (3 Bft) W-SW 247 4,7 C 3,2 C 14,3 km/h (3 Bft)
11.01.2015 01:02 9,8 C 70 % 1016,5 hPa 0,0 l/m 12,9 km/h (3 Bft) W 270 4,6 C 3,6 C 14,2 km/h (3 Bft)
11.01.2015 01:07 9,8 C 69 % 1016,5 hPa 0,0 l/m 13,2 km/h (3 Bft) W-SW 247 4,4 C 3,2 C 11,6 km/h (2 Bft)
11.01.2015 01:12 9,8 C 69 % 1016,5 hPa 0,0 l/m 14,2 km/h (3 Bft) W 270 4,4 C 2,5 C 19,0 km/h (3 Bft)
11.01.2015 01:17 10,0 C 68 % 1016,1 hPa 0,0 l/m 15,0 km/h (3 Bft) W 270 4,4 C 2,2 C 21,4 km/h (4 Bft)
11.01.2015 01:22 9,9 C 69 % 1016,1 hPa 0,0 l/m 16,6 km/h (3 Bft) W 270 4,5 C 1,3 C 24,1 km/h (4 Bft)
11.01.2015 01:27 9,9 C 69 % 1016,1 hPa 0,0 l/m 15,1 km/h (3 Bft) W 270 4,5 C 2,2 C 15,1 km/h (3 Bft)
11.01.2015 01:32 10,0 C 68 % 1016,1 hPa 0,0 l/m 13,8 km/h (3 Bft) W-SW 247 4,4 C 3,2 C 17,7 km/h (3 Bft)
11.01.2015 01:37 9,9 C 68 % 1016,2 hPa 0,0 l/m 13,2 km/h (3 Bft) S-SW 202 4,3 C 3,6 C 28,0 km/h (4 Bft)
11.01.2015 01:42 10,0 C 67 % 1016,2 hPa 0,0 l/m 14,6 km/h (3 Bft) NW 315 4,2 C 2,7 C 23,8 km/h (4 Bft)
11.01.2015 01:47 9,9 C 67 % 1016,2 hPa 0,0 l/m 16,6 km/h (3 Bft) W-SW 247 4,1 C 1,3 C 22,7 km/h (4 Bft)
11.01.2015 01:52 9,8 C 67 % 1016,2 hPa 0,0 l/m 16,4 km/h (3 Bft) W 270 4,0 C 1,4 C 12,2 km/h (2 Bft)
11.01.2015 01:57 9,7 C 68 % 1016,1 hPa 0,0 l/m 13,8 km/h (3 Bft) W-SW 247 4,1 C 2,6 C 13,4 km/h (3 Bft)
11.01.2015 02:02 9,6 C 68 % 1016,1 hPa 0,0 l/m 11,9 km/h (2 Bft) W-SW 247 4,0 C 3,8 C 22,2 km/h (4 Bft)
11.01.2015 02:07 9,7 C 67 % 1016,1 hPa 0,0 l/m 13,8 km/h (3 Bft) W-SW 247 3,9 C 2,6 C 16,9 km/h (3 Bft)
11.01.2015 02:12 9,6 C 67 % 1016,1 hPa 0,0 l/m 14,5 km/h (3 Bft) W-SW 247 3,8 C 2,1 C 12,9 km/h (3 Bft)
11.01.2015 02:17 9,7 C 66 % 1015,9 hPa 0,0 l/m 13,0 km/h (3 Bft) W-SW 247 3,7 C 3,2 C 11,3 km/h (2 Bft)
11.01.2015 02:22 9,7 C 66 % 1015,9 hPa 0,0 l/m 14,3 km/h (3 Bft) W 270 3,7 C 2,4 C 17,7 km/h (3 Bft)
11.01.2015 02:27 9,7 C 66 % 1015,9 hPa 0,0 l/m 13,8 km/h (3 Bft) S-SW 202 3,7 C 2,8 C 15,6 km/h (3 Bft)
11.01.2015 02:32 9,7 C 66 % 1015,9 hPa 0,0 l/m 13,8 km/h (3 Bft) W-SW 247 3,7 C 2,6 C 22,5 km/h (4 Bft)
11.01.2015 02:37 9,6 C 66 % 1015,8 hPa 0,0 l/m 14,2 km/h (3 Bft) W-SW 247 3,6 C 2,4 C 22,9 km/h (4 Bft)
11.01.2015 02:42 9,6 C 66 % 1015,8 hPa 0,0 l/m 14,6 km/h (3 Bft) S 180 3,6 C 2,1 C 13,4 km/h (3 Bft)
11.01.2015 02:47 9,6 C 66 % 1015,8 hPa 0,0 l/m 15,0 km/h (3 Bft) W 270 3,6 C 1,9 C 20,8 km/h (4 Bft)
11.01.2015 02:52 9,6 C 66 % 1015,8 hPa 0,0 l/m 15,0 km/h (3 Bft) SW 225 3,6 C 1,9 C 16,7 km/h (3 Bft)
11.01.2015 02:57 9,6 C 66 % 1015,8 hPa 0,0 l/m 14,6 km/h (3 Bft) W-SW 247 3,6 C 2,1 C 17,9 km/h (3 Bft)
11.01.2015 03:02 9,6 C 66 % 1015,8 hPa 0,0 l/m 14,6 km/h (3 Bft) W-SW 247 3,6 C 2,1 C 23,7 km/h (4 Bft)
11.01.2015 03:07 9,4 C 67 % 1015,8 hPa 0,0 l/m 13,0 km/h (3 Bft) W 270 3,6 C 2,9 C 12,6 km/h (3 Bft)
11.01.2015 03:12 9,5 C 67 % 1015,8 hPa 0,0 l/m 14,8 km/h (3 Bft) S 180 3,7 C 1,5 C 24,6 km/h (4 Bft)
11.01.2015 03:17 9,3 C 68 % 1015,6 hPa 0,0 l/m 16,9 km/h (3 Bft) W-SW 247 3,7 C 0,1 C 21,1 km/h (4 Bft)
11.01.2015 03:22 9,2 C 69 % 1015,6 hPa 0,0 l/m 15,4 km/h (3 Bft) W 270 3,8 C 0,8 C 14,6 km/h (3 Bft)
11.01.2015 03:27 9,1 C 70 % 1015,6 hPa 0,0 l/m 13,7 km/h (3 Bft) W 270 3,9 C 1,5 C 10,9 km/h (2 Bft)
11.01.2015 03:32 9,0 C 70 % 1015,6 hPa 0,0 l/m 14,5 km/h (3 Bft) W-SW 247 3,8 C 0,9 C 22,2 km/h (4 Bft)
11.01.2015 03:37 8,8 C 72 % 1015,2 hPa 0,0 l/m 15,4 km/h (3 Bft) W-SW 247 4,0 C -0,3 C 26,9 km/h (4 Bft)
11.01.2015 03:42 8,7 C 73 % 1015,2 hPa 0,0 l/m 16,1 km/h (3 Bft) SW 225 4,1 C -1,1 C 40,6 km/h (6 Bft)
11.01.2015 03:47 8,5 C 74 % 1015,2 hPa 0,0 l/m 13,8 km/h (3 Bft) W 270 4,1 C -0,0 C 10,9 km/h (2 Bft)
11.01.2015 03:52 8,5 C 75 % 1015,2 hPa 0,0 l/m 14,0 km/h (3 Bft) W-SW 247 4,3 C -0,3 C 10,6 km/h (2 Bft)
11.01.2015 03:57 8,3 C 76 % 1015,0 hPa 0,0 l/m 12,1 km/h (2 Bft) SW 225 4,3 C 1,0 C 12,9 km/h (3 Bft)
11.01.2015 04:02 8,2 C 76 % 1015,0 hPa 0,0 l/m 10,0 km/h (2 Bft) W-SW 247 4,2 C 2,6 C 15,6 km/h (3 Bft)
11.01.2015 04:07 8,3 C 76 % 1015,0 hPa 0,0 l/m 12,1 km/h (2 Bft) SW 225 4,3 C 0,8 C 15,9 km/h (3 Bft)
11.01.2015 04:12 8,3 C 76 % 1015,0 hPa 0,0 l/m 12,6 km/h (3 Bft) W 270 4,3 C 0,6 C 8,2 km/h (2 Bft)
11.01.2015 04:17 8,1 C 77 % 1014,9 hPa 0,0 l/m 10,6 km/h (2 Bft) W 270 4,3 C 2,1 C 10,6 km/h (2 Bft)
11.01.2015 04:22 8,1 C 77 % 1014,9 hPa 0,0 l/m 10,5 km/h (2 Bft) W 270 4,3 C 2,1 C 23,7 km/h (4 Bft)
11.01.2015 04:27 8,0 C 78 % 1014,9 hPa 0,0 l/m 11,6 km/h (2 Bft) SW 225 4,4 C 1,0 C 17,9 km/h (3 Bft)
11.01.2015 04:32 7,9 C 79 % 1014,9 hPa 0,0 l/m 12,7 km/h (3 Bft) W 270 4,5 C -0,1 C 10,8 km/h (2 Bft)
11.01.2015 04:37 7,7 C 80 % 1014,8 hPa 0,0 l/m 12,1 km/h (2 Bft) W-SW 247 4,5 C 0,1 C 15,6 km/h (3 Bft)
11.01.2015 04:42 7,6 C 81 % 1014,8 hPa 0,0 l/m 11,1 km/h (2 Bft) N-NW 337 4,6 C 0,9 C 14,8 km/h (3 Bft)
11.01.2015 04:47 7,5 C 82 % 1014,8 hPa 0,0 l/m 10,8 km/h (2 Bft) W-SW 247 4,6 C 1,1 C 16,1 km/h (3 Bft)
11.01.2015 04:52 7,5 C 82 % 1014,8 hPa 0,0 l/m 11,1 km/h (2 Bft) W-SW 247 4,6 C 0,8 C 23,5 km/h (4 Bft)
11.01.2015 04:57 7,4 C 83 % 1014,6 hPa 0,0 l/m 11,3 km/h (2 Bft) W 270 4,7 C 0,5 C 17,1 km/h (3 Bft)
11.01.2015 05:02 7,4 C 83 % 1014,6 hPa 0,0 l/m 11,3 km/h (2 Bft) W-SW 247 4,7 C 0,4 C 10,8 km/h (2 Bft)
11.01.2015 05:07 7,3 C 84 % 1014,6 hPa 0,0 l/m 9,0 km/h (2 Bft) W-SW 247 4,8 C 2,6 C 8,9 km/h (2 Bft)
11.01.2015 05:12 7,2 C 84 % 1014,6 hPa 0,0 l/m 8,0 km/h (2 Bft) NW 315 4,7 C 3,6 C 9,2 km/h (2 Bft)
11.01.2015 05:17 6,0 C 82 % 1015,0 hPa 0,0 l/m 8,9 km/h (2 Bft) SO 135 3,2 C 1,8 C 13,2 km/h (3 Bft)
11.01.2015 05:22 5,6 C 84 % 1015,0 hPa 0,0 l/m 8,4 km/h (2 Bft) SW 225 3,1 C 1,7 C 17,2 km/h (3 Bft)
11.01.2015 05:27 4,9 C 84 % 1015,0 hPa 0,0 l/m 7,9 km/h (2 Bft) W-NW 292 2,4 C 1,4 C 10,8 km/h (2 Bft)
11.01.2015 05:32 4,6 C 84 % 1015,0 hPa 0,0 l/m 8,9 km/h (2 Bft) W 270 2,1 C -0,3 C 11,4 km/h (2 Bft)
11.01.2015 05:37 4,0 C 85 % 1015,5 hPa 0,0 l/m 10,6 km/h (2 Bft) W 270 1,7 C -3,0 C 5,8 km/h (2 Bft)
11.01.2015 05:42 3,8 C 85 % 1015,5 hPa 0,0 l/m 9,5 km/h (2 Bft) W-NW 292 1,5 C -2,3 C 9,7 km/h (2 Bft)
11.01.2015 05:47 3,1 C 85 % 1015,5 hPa 0,0 l/m 8,7 km/h (2 Bft) W-NW 292 0,8 C -2,0 C 8,4 km/h (2 Bft)
11.01.2015 05:52 2,9 C 86 % 1015,5 hPa 0,0 l/m 8,9 km/h (2 Bft) SW 225 0,8 C -2,7 C 15,4 km/h (3 Bft)
11.01.2015 05:57 2,4 C 86 % 1016,0 hPa 0,0 l/m 9,2 km/h (2 Bft) SW 225 0,3 C -3,7 C 9,0 km/h (2 Bft)
11.01.2015 06:02 2,3 C 86 % 1016,0 hPa 0,0 l/m 9,5 km/h (2 Bft) NW 315 0,2 C -4,3 C 10,3 km/h (2 Bft)
11.01.2015 06:07 2,0 C 86 % 1016,0 hPa 0,0 l/m 7,4 km/h (2 Bft) W-SW 247 -0,1 C -2,3 C 10,9 km/h (2 Bft)
11.01.2015 06:12 1,8 C 87 % 1016,0 hPa 0,0 l/m 7,2 km/h (2 Bft) W-SW 247 -0,1 C -2,2 C 14,0 km/h (3 Bft)
11.01.2015 06:17 1,6 C 87 % 1016,4 hPa 0,0 l/m 6,4 km/h (2 Bft) S-SW 202 -0,3 C -1,4 C 6,1 km/h (2 Bft)
11.01.2015 06:22 1,4 C 87 % 1016,4 hPa 0,0 l/m 5,3 km/h (1 Bft) W-SW 247 -0,5 C -0,9 C 2,1 km/h (1 Bft)
11.01.2015 06:27 1,2 C 87 % 1016,4 hPa 0,0 l/m 4,2 km/h (1 Bft) SW 225 -0,7 C -0,7 C 7,6 km/h (2 Bft)
11.01.2015 06:32 1,1 C 87 % 1016,4 hPa 0,0 l/m 4,0 km/h (1 Bft) W-SW 247 -0,8 C -0,8 C 4,5 km/h (1 Bft)
11.01.2015 06:37 0,9 C 88 % 1016,6 hPa 0,0 l/m 3,7 km/h (1 Bft) W-SW 247 -0,9 C -0,8 C 3,4 km/h (1 Bft)
11.01.2015 06:42 0,9 C 88 % 1016,6 hPa 0,0 l/m 3,2 km/h (1 Bft) W-SW 247 -0,9 C -0,6 C 4,3 km/h (1 Bft)
11.01.2015 06:47 0,8 C 88 % 1016,6 hPa 0,0 l/m 3,2 km/h (1 Bft) SW 225 -1,0 C -0,7 C 2,3 km/h (1 Bft)
11.01.2015 06:52 0,8 C 89 % 1016,6 hPa 0,0 l/m 3,4 km/h (1 Bft) W 270 -0,8 C -0,9 C 5,3 km/h (1 Bft)
11.01.2015 06:57 0,8 C 89 % 1017,1 hPa 0,0 l/m 3,7 km/h (1 Bft) W-SW 247 -0,8 C -1,1 C 4,8 km/h (1 Bft)
11.01.2015 07:02 0,8 C 89 % 1017,1 hPa 0,0 l/m 4,7 km/h (1 Bft) W 270 -0,8 C -1,7 C 6,1 km/h (2 Bft)
11.01.2015 07:07 0,7 C 90 % 1017,1 hPa 0,0 l/m 6,4 km/h (2 Bft) W-SW 247 -0,7 C -2,5 C 7,9 km/h (2 Bft)
11.01.2015 07:12 0,8 C 90 % 1017,1 hPa 0,0 l/m 6,9 km/h (2 Bft) W 270 -0,6 C -3,3 C 6,3 km/h (2 Bft)
11.01.2015 07:17 0,8 C 91 % 1017,4 hPa 0,0 l/m 7,2 km/h (2 Bft) S-SW 202 -0,5 C -3,7 C 9,0 km/h (2 Bft)
11.01.2015 07:22 0,8 C 91 % 1017,4 hPa 0,0 l/m 6,9 km/h (2 Bft) W-SW 247 -0,5 C -3,3 C 6,1 km/h (2 Bft)
11.01.2015 07:27 0,7 C 91 % 1017,4 hPa 0,0 l/m 6,1 km/h (2 Bft) W-SW 247 -0,6 C -2,3 C 5,5 km/h (1 Bft)
11.01.2015 07:32 0,7 C 91 % 1017,4 hPa 0,0 l/m 5,8 km/h (2 Bft) W-SW 247 -0,6 C -2,2 C 11,9 km/h (2 Bft)
11.01.2015 07:37 0,6 C 91 % 1017,5 hPa 0,0 l/m 5,5 km/h (1 Bft) W-SW 247 -0,7 C -2,1 C 8,4 km/h (2 Bft)
11.01.2015 07:42 0,6 C 91 % 1017,5 hPa 0,0 l/m 5,8 km/h (2 Bft) W-SW 247 -0,7 C -2,2 C 9,2 km/h (2 Bft)
11.01.2015 07:47 0,6 C 91 % 1017,5 hPa 0,0 l/m 5,8 km/h (2 Bft) W-SW 247 -0,7 C -2,3 C 4,2 km/h (1 Bft)
11.01.2015 07:52 0,6 C 92 % 1017,5 hPa 0,0 l/m 6,4 km/h (2 Bft) W-SW 247 -0,5 C -2,6 C 10,6 km/h (2 Bft)
11.01.2015 07:57 0,5 C 92 % 1017,9 hPa 0,0 l/m 6,0 km/h (2 Bft) W-NW 292 -0,6 C -2,3 C 7,7 km/h (2 Bft)
11.01.2015 08:02 0,5 C 92 % 1017,9 hPa 0,0 l/m 5,0 km/h (1 Bft) W 270 -0,6 C -1,9 C 6,1 km/h (2 Bft)
11.01.2015 08:07 0,5 C 92 % 1017,9 hPa 0,0 l/m 4,7 km/h (1 Bft) W 270 -0,6 C -1,9 C 5,5 km/h (1 Bft)
11.01.2015 08:12 0,5 C 92 % 1017,9 hPa 0,0 l/m 4,7 km/h (1 Bft) W 270 -0,6 C -1,9 C 5,6 km/h (1 Bft)
11.01.2015 08:17 0,4 C 92 % 1017,9 hPa 0,0 l/m 3,9 km/h (1 Bft) W 270 -0,7 C -1,4 C 5,1 km/h (1 Bft)
11.01.2015 08:22 0,4 C 92 % 1017,9 hPa 0,0 l/m 2,9 km/h (1 Bft) W-SW 247 -0,7 C -0,8 C 2,3 km/h (1 Bft)
11.01.2015 08:27 0,4 C 92 % 1017,9 hPa 0,0 l/m 2,4 km/h (1 Bft) W-SW 247 -0,7 C -0,4 C 3,1 km/h (1 Bft)
11.01.2015 08:32 0,4 C 92 % 1017,9 hPa 0,0 l/m 2,7 km/h (1 Bft) W-SW 247 -0,7 C -0,7 C 4,0 km/h (1 Bft)
11.01.2015 08:37 0,4 C 92 % 1018,3 hPa 0,0 l/m 2,4 km/h (1 Bft) W-SW 247 -0,7 C -0,4 C 2,4 km/h (1 Bft)
11.01.2015 08:42 0,4 C 92 % 1018,3 hPa 0,0 l/m 2,9 km/h (1 Bft) W 270 -0,7 C -0,8 C 6,6 km/h (2 Bft)
11.01.2015 08:47 0,5 C 92 % 1018,3 hPa 0,0 l/m 3,5 km/h (1 Bft) W 270 -0,6 C -1,2 C 8,4 km/h (2 Bft)
11.01.2015 08:52 0,5 C 92 % 1018,3 hPa 0,0 l/m 4,7 km/h (1 Bft) W 270 -0,6 C -1,9 C 9,3 km/h (2 Bft)
11.01.2015 08:57 0,5 C 93 % 1018,6 hPa 0,0 l/m 5,8 km/h (2 Bft) W-SW 247 -0,5 C -2,3 C 7,1 km/h (2 Bft)
11.01.2015 09:02 0,5 C 93 % 1018,6 hPa 0,0 l/m 5,3 km/h (1 Bft) W-SW 247 -0,5 C -2,1 C 11,6 km/h (2 Bft)
11.01.2015 09:07 0,5 C 93 % 1018,6 hPa 0,0 l/m 4,8 km/h (1 Bft) W-SW 247 -0,5 C -1,8 C 7,1 km/h (2 Bft)
11.01.2015 09:12 0,5 C 93 % 1018,6 hPa 0,0 l/m 5,1 km/h (1 Bft) W 270 -0,5 C -2,0 C 6,9 km/h (2 Bft)
11.01.2015 09:17 0,5 C 93 % 1019,1 hPa 0,0 l/m 4,8 km/h (1 Bft) W-SW 247 -0,5 C -1,8 C 6,6 km/h (2 Bft)
11.01.2015 09:22 0,5 C 93 % 1019,1 hPa 0,0 l/m 4,7 km/h (1 Bft) S-SW 202 -0,5 C -1,8 C 0,0 km/h (0 Bft)
11.01.2015 09:27 0,5 C 93 % 1019,1 hPa 0,0 l/m 1,9 km/h (1 Bft) W-SW 247 -0,5 C -0,3 C 0,0 km/h (0 Bft)
11.01.2015 09:32 0,5 C 93 % 1019,1 hPa 0,0 l/m 0,2 km/h (0 Bft) W-SW 247 -0,5 C -0,3 C 0,0 km/h (0 Bft)
11.01.2015 09:37 0,5 C 93 % 1019,8 hPa 0,0 l/m 0,0 km/h (0 Bft) SW 225 -0,5 C -0,3 C 0,0 km/h (0 Bft)
11.01.2015 09:42 0,6 C 93 % 1019,8 hPa 0,0 l/m 0,0 km/h (0 Bft) W 270 -0,4 C -0,3 C 0,0 km/h (0 Bft)
11.01.2015 09:47 0,5 C 92 % 1019,8 hPa 0,0 l/m 0,0 km/h (0 Bft) W-SW 247 -0,6 C -0,3 C 0,0 km/h (0 Bft)
11.01.2015 09:52 0,5 C 92 % 1019,8 hPa 0,0 l/m 0,0 km/h (0 Bft) W-SW 247 -0,6 C -0,3 C 0,0 km/h (0 Bft)
11.01.2015 09:57 0,5 C 92 % 1020,3 hPa 0,0 l/m 0,0 km/h (0 Bft) W-SW 247 -0,6 C -0,4 C 0,0 km/h (0 Bft)
11.01.2015 10:02 0,5 C 92 % 1020,3 hPa 0,0 l/m 0,0 km/h (0 Bft) NW 315 -0,6 C -0,4 C 0,0 km/h (0 Bft)
11.01.2015 10:07 0,3 C 91 % 1020,3 hPa 0,0 l/m 0,0 km/h (0 Bft) W-SW 247 -1,0 C -0,4 C 0,0 km/h (0 Bft)
11.01.2015 10:12 0,3 C 91 % 1020,3 hPa 0,0 l/m 0,0 km/h (0 Bft) W-SW 247 -1,0 C -0,4 C 0,0 km/h (0 Bft)
11.01.2015 10:17 0,2 C 89 % 1020,8 hPa 0,0 l/m 0,0 km/h (0 Bft) S-SW 202 -1,4 C -0,4 C 0,0 km/h (0 Bft)
11.01.2015 10:22 0,2 C 88 % 1020,8 hPa 0,0 l/m 0,0 km/h (0 Bft) W-SW 247 -1,5 C -0,5 C 0,0 km/h (0 Bft)
11.01.2015 10:27 0,2 C 87 % 1020,8 hPa 0,0 l/m 0,0 km/h (0 Bft) W-SW 247 -1,7 C -0,5 C 0,0 km/h (0 Bft)
11.01.2015 10:32 0,1 C 87 % 1020,8 hPa 0,0 l/m 0,0 km/h (0 Bft) W-SW 247 -1,8 C -0,5 C 0,0 km/h (0 Bft)
11.01.2015 10:37 0,1 C 85 % 1021,9 hPa 0,0 l/m 0,0 km/h (0 Bft) W-SW 247 -2,1 C -0,5 C 0,0 km/h (0 Bft)
11.01.2015 10:42 -0,1 C 84 % 1021,9 hPa 0,0 l/m 0,0 km/h (0 Bft) NW 315 -2,5 C -0,6 C 0,0 km/h (0 Bft)
11.01.2015 10:47 -0,3 C 84 % 1021,9 hPa 0,0 l/m 0,0 km/h (0 Bft) SW 225 -2,7 C -0,8 C 0,0 km/h (0 Bft)
11.01.2015 10:52 -0,3 C 84 % 1021,9 hPa 0,0 l/m 0,0 km/h (0 Bft) NW 315 -2,7 C -0,8 C 0,0 km/h (0 Bft)
11.01.2015 10:57 -0,3 C 83 % 1022,6 hPa 0,0 l/m 0,0 km/h (0 Bft) W 270 -2,8 C -0,8 C 0,0 km/h (0 Bft)
11.01.2015 11:02 -0,1 C 83 % 1022,6 hPa 0,0 l/m 0,5 km/h (0 Bft) O-NO 67 -2,6 C -0,8 C 5,0 km/h (1 Bft)
11.01.2015 11:07 -0,1 C 82 % 1022,6 hPa 0,0 l/m 0,6 km/h (0 Bft) S-SW 202 -2,8 C 0,5 C 0,0 km/h (0 Bft)
11.01.2015 11:12 0,0 C 82 % 1022,6 hPa 0,0 l/m 0,6 km/h (0 Bft) S-SW 202 -2,7 C 0,5 C 0,0 km/h (0 Bft)
11.01.2015 11:17 0,0 C 82 % 1023,1 hPa 0,0 l/m 0,3 km/h (0 Bft) N-NW 337 -2,7 C 3,3 C 0,0 km/h (0 Bft)
11.01.2015 11:22 0,0 C 82 % 1023,1 hPa 0,0 l/m 0,3 km/h (0 Bft) S-SW 202 -2,7 C 4,7 C 0,0 km/h (0 Bft)
11.01.2015 11:27 0,3 C 81 % 1023,1 hPa 0,0 l/m 1,0 km/h (0 Bft) W-SW 247 -2,6 C 4,1 C 8,5 km/h (2 Bft)
11.01.2015 11:33 0,3 C 80 % 1023,1 hPa 0,0 l/m 3,7 km/h (1 Bft) SW 225 -2,7 C 1,2 C 6,4 km/h (2 Bft)
11.01.2015 11:35 0,3 C 80 % 1023,1 hPa 0,0 l/m 3,7 km/h (1 Bft) SW 225 -2,7 C 1,2 C 6,4 km/h (2 Bft)
11.01.2015 11:40 0,3 C 79 % 1023,1 hPa 0,0 l/m 6,8 km/h (2 Bft) SW 225 -2,9 C -1,9 C 5,5 km/h (1 Bft)
11.01.2015 11:45 0,3 C 79 % 1023,1 hPa 0,0 l/m 6,6 km/h (2 Bft) W-SW 247 -2,9 C -2,1 C 4,5 km/h (1 Bft)
11.01.2015 11:50 0,4 C 78 % 1023,1 hPa 0,0 l/m 7,1 km/h (2 Bft) SW 225 -3,0 C -3,0 C 11,1 km/h (2 Bft)
11.01.2015 11:55 0,4 C 78 % 1023,1 hPa 0,0 l/m 6,8 km/h (2 Bft) SW 225 -3,0 C -2,5 C 9,0 km/h (2 Bft)
11.01.2015 12:00 0,7 C 77 % 1023,2 hPa 0,0 l/m 7,1 km/h (2 Bft) W-SW 247 -2,9 C -2,7 C 11,3 km/h (2 Bft)
11.01.2015 12:05 0,8 C 77 % 1023,2 hPa 0,0 l/m 7,2 km/h (2 Bft) W-SW 247 -2,8 C -2,7 C 11,7 km/h (2 Bft)
11.01.2015 12:10 0,9 C 76 % 1023,2 hPa 0,0 l/m 7,1 km/h (2 Bft) W 270 -2,8 C -2,4 C 5,6 km/h (1 Bft)
11.01.2015 12:15 1,0 C 76 % 1023,2 hPa 0,0 l/m 6,0 km/h (2 Bft) SW 225 -2,7 C -1,0 C 4,5 km/h (1 Bft)
11.01.2015 12:20 1,3 C 75 % 1023,1 hPa 0,0 l/m 6,0 km/h (2 Bft) S 180 -2,6 C -0,6 C 8,7 km/h (2 Bft)
11.01.2015 12:25 1,3 C 74 % 1023,1 hPa 0,0 l/m 6,4 km/h (2 Bft) W-SW 247 -2,8 C -0,8 C 7,4 km/h (2 Bft)
11.01.2015 12:30 1,2 C 74 % 1023,1 hPa 0,0 l/m 6,3 km/h (2 Bft) W-SW 247 -2,9 C -0,4 C 6,3 km/h (2 Bft)
11.01.2015 12:35 1,2 C 74 % 1023,1 hPa 0,0 l/m 5,6 km/h (1 Bft) S-SW 202 -2,9 C -0,2 C 4,3 km/h (1 Bft)
11.01.2015 12:40 1,7 C 74 % 1022,9 hPa 0,0 l/m 5,3 km/h (1 Bft) SW 225 -2,4 C 0,1 C 7,9 km/h (2 Bft)
11.01.2015 12:45 2,1 C 74 % 1022,9 hPa 0,0 l/m 5,5 km/h (1 Bft) SW 225 -2,0 C 0,6 C 4,7 km/h (1 Bft)
11.01.2015 12:50 2,0 C 73 % 1022,9 hPa 0,0 l/m 5,1 km/h (1 Bft) W-SW 247 -2,3 C 1,4 C 10,8 km/h (2 Bft)
11.01.2015 12:55 1,5 C 73 % 1022,9 hPa 0,0 l/m 6,1 km/h (2 Bft) W 270 -2,8 C 0,6 C 8,9 km/h (2 Bft)
11.01.2015 13:00 1,3 C 74 % 1022,9 hPa 0,0 l/m 7,9 km/h (2 Bft) W 270 -2,8 C -2,1 C 19,0 km/h (3 Bft)
11.01.2015 13:05 1,2 C 74 % 1022,9 hPa 0,0 l/m 8,0 km/h (2 Bft) W-SW 247 -2,9 C -2,7 C 4,7 km/h (1 Bft)
11.01.2015 13:10 1,2 C 75 % 1022,9 hPa 0,0 l/m 8,4 km/h (2 Bft) SW 225 -2,7 C -3,3 C 8,5 km/h (2 Bft)
11.01.2015 13:15 1,2 C 75 % 1022,9 hPa 0,0 l/m 8,7 km/h (2 Bft) NW 315 -2,7 C -3,8 C 16,3 km/h (3 Bft)
11.01.2015 13:20 1,8 C 74 % 1022,4 hPa 0,0 l/m 9,3 km/h (2 Bft) W-SW 247 -2,3 C -4,3 C 10,8 km/h (2 Bft)
11.01.2015 13:25 1,4 C 73 % 1022,4 hPa 0,0 l/m 9,2 km/h (2 Bft) SW 225 -2,9 C -3,7 C 12,4 km/h (3 Bft)
11.01.2015 13:30 1,1 C 73 % 1022,4 hPa 0,0 l/m 7,9 km/h (2 Bft) W-SW 247 -3,2 C -2,8 C 10,6 km/h (2 Bft)
11.01.2015 13:35 1,1 C 74 % 1022,4 hPa 0,0 l/m 6,8 km/h (2 Bft) W-SW 247 -3,0 C -1,6 C 4,8 km/h (1 Bft)
11.01.2015 13:40 1,0 C 75 % 1022,1 hPa 0,0 l/m 6,4 km/h (2 Bft) SW 225 -2,9 C -1,2 C 7,4 km/h (2 Bft)
11.01.2015 13:45 1,0 C 75 % 1022,1 hPa 0,0 l/m 6,1 km/h (2 Bft) W-SW 247 -2,9 C -1,1 C 16,3 km/h (3 Bft)
11.01.2015 13:50 1,1 C 75 % 1022,1 hPa 0,0 l/m 5,8 km/h (2 Bft) SW 225 -2,8 C -0,7 C 9,2 km/h (2 Bft)
11.01.2015 13:55 0,9 C 74 % 1022,1 hPa 0,0 l/m 7,2 km/h (2 Bft) W-SW 247 -3,2 C -2,2 C 13,4 km/h (3 Bft)
11.01.2015 14:00 0,8 C 74 % 1022,0 hPa 0,0 l/m 8,4 km/h (2 Bft) W-SW 247 -3,3 C -4,2 C 8,0 km/h (2 Bft)
11.01.2015 14:05 0,7 C 74 % 1022,0 hPa 0,0 l/m 8,5 km/h (2 Bft) SW 225 -3,4 C -4,4 C 11,6 km/h (2 Bft)
11.01.2015 14:10 0,7 C 74 % 1022,0 hPa 0,0 l/m 10,1 km/h (2 Bft) W-SW 247 -3,4 C -6,5 C 7,9 km/h (2 Bft)
11.01.2015 14:15 1,0 C 74 % 1022,0 hPa 0,0 l/m 10,5 km/h (2 Bft) W-SW 247 -3,1 C -6,8 C 7,4 km/h (2 Bft)
11.01.2015 14:20 0,8 C 74 % 1021,6 hPa 0,0 l/m 9,8 km/h (2 Bft) W-SW 247 -3,3 C -5,7 C 29,0 km/h (5 Bft)
11.01.2015 14:25 0,6 C 75 % 1021,6 hPa 0,0 l/m 10,3 km/h (2 Bft) W-SW 247 -3,3 C -6,5 C 13,7 km/h (3 Bft)
11.01.2015 14:30 0,6 C 76 % 1021,6 hPa 0,0 l/m 10,3 km/h (2 Bft) W-SW 247 -3,1 C -6,9 C 7,4 km/h (2 Bft)
11.01.2015 14:35 0,9 C 77 % 1021,6 hPa 0,0 l/m 9,0 km/h (2 Bft) W-SW 247 -2,7 C -5,1 C 9,8 km/h (2 Bft)
11.01.2015 14:40 1,0 C 76 % 1021,8 hPa 0,0 l/m 8,7 km/h (2 Bft) NW 315 -2,7 C -4,3 C 6,1 km/h (2 Bft)
11.01.2015 14:42 0,9 C 77 % 1021,8 hPa 0,0 l/m 8,9 km/h (2 Bft) W-SW 247 -2,7 C -4,4 C 6,8 km/h (2 Bft)
11.01.2015 14:47 1,0 C 77 % 1021,8 hPa 0,0 l/m 7,7 km/h (2 Bft) W-SW 247 -2,6 C -2,9 C 7,4 km/h (2 Bft)
11.01.2015 14:52 0,9 C 77 % 1021,8 hPa 0,0 l/m 7,4 km/h (2 Bft) W 270 -2,7 C -2,5 C 7,7 km/h (2 Bft)
11.01.2015 14:57 0,9 C 77 % 1021,8 hPa 0,0 l/m 7,4 km/h (2 Bft) W 270 -2,7 C -2,5 C 7,7 km/h (2 Bft)
11.01.2015 15:00 0,5 C 77 % 1021,8 hPa 0,0 l/m 7,2 km/h (2 Bft) SW 225 -3,1 C -2,7 C 9,2 km/h (2 Bft)
11.01.2015 15:02 0,5 C 78 % 1021,8 hPa 0,0 l/m 6,6 km/h (2 Bft) W-SW 247 -2,9 C -2,0 C 8,5 km/h (2 Bft)
11.01.2015 15:07 0,3 C 78 % 1021,8 hPa 0,0 l/m 7,4 km/h (2 Bft) W-NW 292 -3,1 C -3,7 C 14,3 km/h (3 Bft)
11.01.2015 15:12 0,3 C 78 % 1021,8 hPa 0,0 l/m 8,5 km/h (2 Bft) W-NW 292 -3,1 C -5,3 C 11,6 km/h (2 Bft)
11.01.2015 15:17 0,6 C 78 % 1021,8 hPa 0,0 l/m 9,0 km/h (2 Bft) W 270 -2,8 C -5,2 C 10,3 km/h (2 Bft)
11.01.2015 15:22 0,8 C 78 % 1021,8 hPa 0,0 l/m 8,9 km/h (2 Bft) W-NW 292 -2,6 C -5,0 C 12,2 km/h (2 Bft)
11.01.2015 15:27 0,7 C 78 % 1021,8 hPa 0,0 l/m 9,3 km/h (2 Bft) S-SW 202 -2,7 C -5,2 C 11,7 km/h (2 Bft)
11.01.2015 15:32 0,6 C 79 % 1021,8 hPa 0,0 l/m 10,9 km/h (2 Bft) W 270 -2,6 C -7,3 C 18,7 km/h (3 Bft)
11.01.2015 15:33 0,6 C 79 % 1021,8 hPa 0,0 l/m 10,9 km/h (2 Bft) W 270 -2,6 C -7,3 C 18,7 km/h (3 Bft)
11.01.2015 15:35 0,6 C 79 % 1021,8 hPa 0,0 l/m 10,9 km/h (2 Bft) W 270 -2,6 C -7,3 C 18,7 km/h (3 Bft)
11.01.2015 15:40 0,5 C 79 % 1022,1 hPa 0,0 l/m 12,4 km/h (3 Bft) W 270 -2,7 C -9,5 C 14,0 km/h (3 Bft)
11.01.2015 15:45 0,5 C 79 % 1022,1 hPa 0,0 l/m 12,6 km/h (3 Bft) W 270 -2,7 C -9,6 C 14,6 km/h (3 Bft)
11.01.2015 15:50 0,3 C 80 % 1022,1 hPa 0,0 l/m 11,6 km/h (2 Bft) W 270 -2,7 C -8,8 C 12,7 km/h (3 Bft)
11.01.2015 15:55 0,3 C 80 % 1022,1 hPa 0,0 l/m 12,2 km/h (2 Bft) SW 225 -2,7 C -9,5 C 24,8 km/h (4 Bft)
11.01.2015 16:00 0,3 C 80 % 1022,4 hPa 0,0 l/m 12,4 km/h (3 Bft) W 270 -2,7 C -10,2 C 16,6 km/h (3 Bft)
11.01.2015 16:05 0,2 C 80 % 1022,4 hPa 0,0 l/m 13,2 km/h (3 Bft) W-NW 292 -2,8 C -11,0 C 18,2 km/h (3 Bft)
11.01.2015 16:10 0,1 C 79 % 1022,4 hPa 0,0 l/m 14,0 km/h (3 Bft) W-SW 247 -3,1 C -12,0 C 14,5 km/h (3 Bft)
11.01.2015 16:15 -0,1 C 80 % 1022,4 hPa 0,0 l/m 13,5 km/h (3 Bft) W 270 -3,1 C -11,8 C 15,3 km/h (3 Bft)
11.01.2015 16:20 -0,1 C 80 % 1022,6 hPa 0,0 l/m 12,4 km/h (3 Bft) W-SW 247 -3,1 C -10,9 C 7,2 km/h (2 Bft)
11.01.2015 16:25 -0,1 C 80 % 1022,6 hPa 0,0 l/m 11,6 km/h (2 Bft) W-SW 247 -3,1 C -9,7 C 10,3 km/h (2 Bft)
11.01.2015 16:30 -0,3 C 81 % 1022,6 hPa 0,0 l/m 11,4 km/h (2 Bft) W-SW 247 -3,2 C -9,9 C 11,7 km/h (2 Bft)
11.01.2015 16:35 -0,5 C 81 % 1022,6 hPa 0,0 l/m 11,1 km/h (2 Bft) W 270 -3,3 C -9,9 C 17,9 km/h (3 Bft)
11.01.2015 16:40 -0,5 C 82 % 1022,9 hPa 0,0 l/m 11,4 km/h (2 Bft) SW 225 -3,2 C -10,5 C 13,4 km/h (3 Bft)
11.01.2015 16:42 -0,5 C 82 % 1022,9 hPa 0,0 l/m 12,6 km/h (3 Bft) W 270 -3,2 C -11,8 C 16,1 km/h (3 Bft)
11.01.2015 16:47 -0,4 C 82 % 1022,9 hPa 0,0 l/m 12,4 km/h (3 Bft) W-SW 247 -3,1 C -11,6 C 14,3 km/h (3 Bft)
11.01.2015 16:49 -0,4 C 82 % 1022,9 hPa 0,0 l/m 12,4 km/h (3 Bft) W-SW 247 -3,1 C -11,6 C 14,3 km/h (3 Bft)
11.01.2015 16:50 -0,4 C 82 % 1022,9 hPa 0,0 l/m 12,4 km/h (3 Bft) W-SW 247 -3,1 C -11,6 C 14,3 km/h (3 Bft)
11.01.2015 16:55 -0,5 C 82 % 1022,9 hPa 0,0 l/m 12,1 km/h (2 Bft) W 270 -3,2 C -11,2 C 23,8 km/h (4 Bft)
11.01.2015 17:00 -0,4 C 83 % 1023,4 hPa 0,0 l/m 12,1 km/h (2 Bft) SW 225 -2,9 C -11,1 C 8,9 km/h (2 Bft)
11.01.2015 17:05 -0,5 C 83 % 1023,4 hPa 0,0 l/m 12,7 km/h (3 Bft) W 270 -3,0 C -11,8 C 26,4 km/h (4 Bft)
11.01.2015 17:10 -0,5 C 83 % 1023,4 hPa 0,0 l/m 10,9 km/h (2 Bft) W 270 -3,0 C -9,7 C 9,8 km/h (2 Bft)
11.01.2015 17:15 -0,6 C 83 % 1023,4 hPa 0,0 l/m 11,4 km/h (2 Bft) W-SW 247 -3,1 C -10,5 C 10,9 km/h (2 Bft)
11.01.2015 17:20 -0,7 C 82 % 1023,8 hPa 0,0 l/m 10,1 km/h (2 Bft) S-SW 202 -3,4 C -9,0 C 10,0 km/h (2 Bft)
11.01.2015 17:25 -0,7 C 83 % 1023,8 hPa 0,0 l/m 11,3 km/h (2 Bft) W-SW 247 -3,2 C -10,4 C 19,5 km/h (3 Bft)
11.01.2015 17:30 -0,5 C 83 % 1023,8 hPa 0,0 l/m 11,4 km/h (2 Bft) W 270 -3,0 C -10,5 C 9,7 km/h (2 Bft)
11.01.2015 17:35 -0,7 C 83 % 1023,8 hPa 0,0 l/m 11,3 km/h (2 Bft) W-SW 247 -3,2 C -10,4 C 12,7 km/h (3 Bft)
11.01.2015 17:40 -0,7 C 82 % 1024,0 hPa 0,0 l/m 10,9 km/h (2 Bft) W-SW 247 -3,4 C -9,9 C 10,3 km/h (2 Bft)
11.01.2015 17:45 -0,8 C 82 % 1024,0 hPa 0,0 l/m 12,1 km/h (2 Bft) W-NW 292 -3,5 C -11,3 C 10,5 km/h (2 Bft)
11.01.2015 17:50 -0,9 C 83 % 1024,0 hPa 0,0 l/m 11,1 km/h (2 Bft) W 270 -3,4 C -10,7 C 18,7 km/h (3 Bft)
11.01.2015 17:55 -0,9 C 83 % 1024,0 hPa 0,0 l/m 10,5 km/h (2 Bft) N-NW 337 -3,4 C -9,9 C 12,4 km/h (3 Bft)
11.01.2015 18:00 -0,9 C 83 % 1024,0 hPa 0,0 l/m 11,7 km/h (2 Bft) W 270 -3,4 C -11,4 C 12,9 km/h (3 Bft)
11.01.2015 18:05 -1,1 C 83 % 1024,0 hPa 0,0 l/m 11,4 km/h (2 Bft) W-SW 247 -3,6 C -11,2 C 20,3 km/h (4 Bft)
11.01.2015 18:10 -1,1 C 83 % 1024,0 hPa 0,0 l/m 12,2 km/h (2 Bft) W 270 -3,6 C -12,1 C 19,8 km/h (3 Bft)
11.01.2015 18:15 -1,1 C 83 % 1024,0 hPa 0,0 l/m 12,2 km/h (2 Bft) W-SW 247 -3,6 C -12,3 C 19,0 km/h (3 Bft)
11.01.2015 18:17 -1,2 C 83 % 1023,9 hPa 0,0 l/m 11,3 km/h (2 Bft) W-SW 247 -3,7 C -11,2 C 15,6 km/h (3 Bft)
11.01.2015 18:22 -1,2 C 83 % 1023,9 hPa 0,0 l/m 10,9 km/h (2 Bft) W-NW 292 -3,7 C -10,9 C 11,4 km/h (2 Bft)
11.01.2015 18:27 -1,2 C 83 % 1023,9 hPa 0,0 l/m 10,6 km/h (2 Bft) W-SW 247 -3,7 C -10,5 C 15,9 km/h (3 Bft)
11.01.2015 18:32 -1,2 C 83 % 1023,9 hPa 0,0 l/m 10,6 km/h (2 Bft) W 270 -3,7 C -10,5 C 14,0 km/h (3 Bft)
11.01.2015 18:37 -1,2 C 83 % 1023,8 hPa 0,0 l/m 10,1 km/h (2 Bft) W-SW 247 -3,7 C -9,8 C 14,0 km/h (3 Bft)
11.01.2015 18:42 -1,1 C 83 % 1023,8 hPa 0,0 l/m 10,5 km/h (2 Bft) S-SW 202 -3,6 C -10,3 C 16,1 km/h (3 Bft)
11.01.2015 18:47 -1,1 C 83 % 1023,8 hPa 0,0 l/m 12,1 km/h (2 Bft) W 270 -3,6 C -12,1 C 18,3 km/h (3 Bft)
11.01.2015 18:52 -1,1 C 83 % 1023,8 hPa 0,0 l/m 12,6 km/h (3 Bft) SW 225 -3,6 C -12,6 C 26,4 km/h (4 Bft)
11.01.2015 18:57 -1,1 C 82 % 1024,3 hPa 0,0 l/m 12,6 km/h (3 Bft) W-SW 247 -3,8 C -12,6 C 15,8 km/h (3 Bft)
11.01.2015 19:02 -1,1 C 82 % 1024,3 hPa 0,0 l/m 11,9 km/h (2 Bft) W 270 -3,8 C -11,9 C 13,5 km/h (3 Bft)
11.01.2015 19:07 -1,1 C 82 % 1024,3 hPa 0,0 l/m 11,7 km/h (2 Bft) W 270 -3,8 C -11,8 C 12,7 km/h (3 Bft)
11.01.2015 19:09 -1,1 C 82 % 1024,3 hPa 0,0 l/m 11,7 km/h (2 Bft) W 270 -3,8 C -11,8 C 12,7 km/h (3 Bft)
11.01.2015 19:10 -1,1 C 82 % 1024,3 hPa 0,0 l/m 11,7 km/h (2 Bft) W 270 -3,8 C -11,8 C 12,7 km/h (3 Bft)
11.01.2015 19:15 -1,1 C 82 % 1024,3 hPa 0,0 l/m 11,7 km/h (2 Bft) NW 315 -3,8 C -11,5 C 11,4 km/h (2 Bft)
11.01.2015 19:20 -1,1 C 81 % 1024,9 hPa 0,0 l/m 11,3 km/h (2 Bft) W-NW 292 -3,9 C -11,0 C 17,7 km/h (3 Bft)
11.01.2015 19:25 -1,0 C 81 % 1024,9 hPa 0,0 l/m 12,4 km/h (3 Bft) W 270 -3,8 C -12,4 C 13,5 km/h (3 Bft)
11.01.2015 19:30 -1,1 C 81 % 1024,9 hPa 0,0 l/m 11,9 km/h (2 Bft) W-SW 247 -3,9 C -11,7 C 14,0 km/h (3 Bft)
11.01.2015 19:35 -1,0 C 80 % 1024,9 hPa 0,0 l/m 11,6 km/h (2 Bft) W-NW 292 -4,0 C -11,3 C 15,4 km/h (3 Bft)
11.01.2015 19:40 -0,9 C 80 % 1025,5 hPa 0,0 l/m 11,1 km/h (2 Bft) W-SW 247 -3,9 C -10,4 C 13,2 km/h (3 Bft)
11.01.2015 19:45 -1,0 C 80 % 1025,5 hPa 0,0 l/m 10,9 km/h (2 Bft) W-SW 247 -4,0 C -10,3 C 22,2 km/h (4 Bft)
11.01.2015 19:50 -1,1 C 80 % 1025,5 hPa 0,0 l/m 10,8 km/h (2 Bft) W-SW 247 -4,1 C -10,2 C 14,2 km/h (3 Bft)
11.01.2015 19:55 -1,1 C 80 % 1025,5 hPa 0,0 l/m 10,9 km/h (2 Bft) W 270 -4,1 C -10,4 C 16,1 km/h (3 Bft)
11.01.2015 20:00 -1,0 C 80 % 1025,5 hPa 0,0 l/m 9,8 km/h (2 Bft) SW 225 -4,0 C -8,9 C 16,6 km/h (3 Bft)
11.01.2015 20:05 -0,9 C 80 % 1025,5 hPa 0,0 l/m 10,1 km/h (2 Bft) W 270 -3,9 C -9,2 C 11,7 km/h (2 Bft)
11.01.2015 20:10 -0,8 C 80 % 1025,5 hPa 0,0 l/m 11,4 km/h (2 Bft) W 270 -3,8 C -10,5 C 15,1 km/h (3 Bft)
11.01.2015 20:15 -0,7 C 79 % 1025,5 hPa 0,0 l/m 12,1 km/h (2 Bft) W-SW 247 -3,9 C -11,3 C 9,3 km/h (2 Bft)
11.01.2015 20:20 -0,7 C 79 % 1025,8 hPa 0,0 l/m 12,7 km/h (3 Bft) W-SW 247 -3,9 C -11,8 C 18,0 km/h (3 Bft)
11.01.2015 20:25 -0,7 C 79 % 1025,8 hPa 0,0 l/m 11,6 km/h (2 Bft) W-SW 247 -3,9 C -10,6 C 14,2 km/h (3 Bft)
11.01.2015 20:30 -0,7 C 79 % 1025,8 hPa 0,0 l/m 12,1 km/h (2 Bft) W-SW 247 -3,9 C -11,2 C 7,1 km/h (2 Bft)
11.01.2015 20:35 -0,7 C 79 % 1025,8 hPa 0,0 l/m 12,2 km/h (2 Bft) W-SW 247 -3,9 C -11,4 C 11,7 km/h (2 Bft)
11.01.2015 20:40 -0,7 C 79 % 1025,8 hPa 0,0 l/m 11,4 km/h (2 Bft) W-SW 247 -3,9 C -10,5 C 15,4 km/h (3 Bft)
11.01.2015 20:45 -0,6 C 79 % 1025,8 hPa 0,0 l/m 10,8 km/h (2 Bft) SW 225 -3,8 C -9,5 C 11,7 km/h (2 Bft)
11.01.2015 20:50 -0,5 C 78 % 1025,8 hPa 0,0 l/m 11,4 km/h (2 Bft) W 270 -3,9 C -10,1 C 22,5 km/h (4 Bft)
11.01.2015 20:55 -0,6 C 78 % 1025,8 hPa 0,0 l/m 10,8 km/h (2 Bft) W 270 -3,9 C -9,4 C 26,9 km/h (4 Bft)
11.01.2015 20:57 -0,6 C 78 % 1026,1 hPa 0,0 l/m 9,5 km/h (2 Bft) W-SW 247 -3,9 C -7,7 C 8,5 km/h (2 Bft)
11.01.2015 21:02 -0,6 C 78 % 1026,1 hPa 0,0 l/m 9,5 km/h (2 Bft) W-SW 247 -3,9 C -7,7 C 8,5 km/h (2 Bft)
11.01.2015 21:05 -0,5 C 78 % 1026,1 hPa 0,0 l/m 9,7 km/h (2 Bft) W-SW 247 -3,9 C -8,0 C 7,6 km/h (2 Bft)
11.01.2015 21:10 -0,5 C 77 % 1026,1 hPa 0,0 l/m 9,8 km/h (2 Bft) W 270 -4,0 C -8,0 C 9,0 km/h (2 Bft)
11.01.2015 21:15 -0,5 C 77 % 1026,1 hPa 0,0 l/m 10,0 km/h (2 Bft) W 270 -4,0 C -8,2 C 10,6 km/h (2 Bft)
11.01.2015 21:17 -0,4 C 77 % 1026,2 hPa 0,0 l/m 11,1 km/h (2 Bft) W-SW 247 -3,9 C -9,6 C 17,9 km/h (3 Bft)
11.01.2015 21:22 -0,3 C 77 % 1026,2 hPa 0,0 l/m 11,7 km/h (2 Bft) W-SW 247 -3,8 C -10,2 C 21,6 km/h (4 Bft)
11.01.2015 21:27 -0,3 C 77 % 1026,2 hPa 0,0 l/m 11,9 km/h (2 Bft) W-SW 247 -3,8 C -10,1 C 10,1 km/h (2 Bft)
11.01.2015 21:32 -0,3 C 77 % 1026,2 hPa 0,0 l/m 11,6 km/h (2 Bft) W 270 -3,8 C -9,7 C 14,2 km/h (3 Bft)
11.01.2015 21:37 -0,3 C 77 % 1026,2 hPa 0,0 l/m 12,2 km/h (2 Bft) W 270 -3,8 C -10,5 C 13,2 km/h (3 Bft)
11.01.2015 21:42 -0,2 C 77 % 1026,2 hPa 0,0 l/m 14,0 km/h (3 Bft) W-SW 247 -3,7 C -12,3 C 26,2 km/h (4 Bft)
11.01.2015 21:47 -0,2 C 76 % 1026,2 hPa 0,0 l/m 14,0 km/h (3 Bft) S-SO 157 -3,9 C -12,2 C 20,6 km/h (4 Bft)
11.01.2015 21:52 -0,2 C 77 % 1026,2 hPa 0,0 l/m 13,8 km/h (3 Bft) W 270 -3,7 C -12,2 C 27,0 km/h (4 Bft)
11.01.2015 21:57 -0,3 C 77 % 1026,4 hPa 0,0 l/m 12,7 km/h (3 Bft) W-SW 247 -3,8 C -11,0 C 6,8 km/h (2 Bft)
11.01.2015 22:02 -0,4 C 78 % 1026,4 hPa 0,0 l/m 11,6 km/h (2 Bft) W-SW 247 -3,8 C -10,0 C 23,2 km/h (4 Bft)
11.01.2015 22:07 -0,4 C 78 % 1026,4 hPa 0,0 l/m 11,7 km/h (2 Bft) W 270 -3,8 C -10,2 C 13,7 km/h (3 Bft)
11.01.2015 22:12 -0,5 C 78 % 1026,4 hPa 0,0 l/m 12,9 km/h (3 Bft) W-NW 292 -3,9 C -11,6 C 7,1 km/h (2 Bft)
11.01.2015 22:17 -0,5 C 78 % 1026,4 hPa 0,0 l/m 13,7 km/h (3 Bft) W-SW 247 -3,9 C -12,6 C 14,2 km/h (3 Bft)
11.01.2015 22:27 -0,5 C 78 % 1026,4 hPa 0,0 l/m 12,4 km/h (3 Bft) W-SW 247 -3,9 C -11,3 C 15,1 km/h (3 Bft)
11.01.2015 22:32 -0,7 C 78 % 1026,4 hPa 0,0 l/m 11,9 km/h (2 Bft) W-SW 247 -4,0 C -10,8 C 10,3 km/h (2 Bft)
11.01.2015 22:37 -0,7 C 78 % 1026,2 hPa 0,0 l/m 10,8 km/h (2 Bft) W 270 -4,0 C -9,7 C 17,2 km/h (3 Bft)
11.01.2015 22:42 -0,7 C 77 % 1026,2 hPa 0,0 l/m 10,8 km/h (2 Bft) W-SW 247 -4,2 C -9,7 C 10,9 km/h (2 Bft)
11.01.2015 22:47 -0,6 C 76 % 1026,2 hPa 0,0 l/m 12,7 km/h (3 Bft) W-SW 247 -4,3 C -11,7 C 15,4 km/h (3 Bft)
11.01.2015 22:52 -0,6 C 76 % 1026,2 hPa 0,0 l/m 12,7 km/h (3 Bft) SW 225 -4,3 C -11,7 C 17,7 km/h (3 Bft)
11.01.2015 22:57 -0,6 C 76 % 1026,6 hPa 0,0 l/m 12,2 km/h (2 Bft) W 270 -4,3 C -11,0 C 11,3 km/h (2 Bft)
11.01.2015 23:02 -0,5 C 76 % 1026,6 hPa 0,0 l/m 13,4 km/h (3 Bft) S-SW 202 -4,2 C -12,2 C 12,9 km/h (3 Bft)
11.01.2015 23:07 -0,4 C 76 % 1026,6 hPa 0,0 l/m 13,2 km/h (3 Bft) W-SW 247 -4,1 C -12,0 C 13,2 km/h (3 Bft)
11.01.2015 23:12 -0,4 C 76 % 1026,6 hPa 0,0 l/m 12,4 km/h (3 Bft) S 180 -4,1 C -10,9 C 15,8 km/h (3 Bft)
11.01.2015 23:17 -0,3 C 76 % 1026,8 hPa 0,0 l/m 13,7 km/h (3 Bft) SW 225 -4,0 C -12,2 C 17,7 km/h (3 Bft)
11.01.2015 23:22 -0,3 C 76 % 1026,8 hPa 0,0 l/m 13,7 km/h (3 Bft) SW 225 -4,0 C -12,2 C 17,7 km/h (3 Bft)
11.01.2015 23:25 -0,3 C 77 % 1026,8 hPa 0,0 l/m 14,8 km/h (3 Bft) W 270 -3,8 C -13,3 C 14,2 km/h (3 Bft)
11.01.2015 23:30 -0,4 C 78 % 1026,8 hPa 0,0 l/m 15,0 km/h (3 Bft) W 270 -3,8 C -13,4 C 21,1 km/h (4 Bft)
11.01.2015 23:32 -0,4 C 78 % 1026,8 hPa 0,0 l/m 15,0 km/h (3 Bft) W 270 -3,8 C -13,4 C 21,1 km/h (4 Bft)
11.01.2015 23:35 -0,4 C 78 % 1026,8 hPa 0,0 l/m 14,6 km/h (3 Bft) W-SW 247 -3,8 C -13,1 C 12,1 km/h (2 Bft)
11.01.2015 23:40 -0,5 C 78 % 1026,6 hPa 0,0 l/m 13,8 km/h (3 Bft) W-SW 247 -3,9 C -12,4 C 11,9 km/h (2 Bft)
11.01.2015 23:45 -0,4 C 78 % 1026,6 hPa 0,0 l/m 14,2 km/h (3 Bft) W 270 -3,8 C -12,8 C 20,9 km/h (4 Bft)
11.01.2015 23:50 -0,5 C 78 % 1026,6 hPa 0,0 l/m 13,8 km/h (3 Bft) W-SW 247 -3,9 C -12,4 C 10,3 km/h (2 Bft)
11.01.2015 23:55 -0,4 C 79 % 1026,6 hPa 0,0 l/m 15,0 km/h (3 Bft) W 270 -3,6 C -13,5 C 16,4 km/h (3 Bft)
_ Min-Zeit 18:37 03:02 05:12 - 10:57 - - 22:57 23:55 11:22
Minimum _ -1,2 C 66 % 1014,6 hPa - 0,0 km/h (0 Bft) - - -4,3 C -13,5 C 0,0 km/h (0 Bft)
_ Max-Zeit 01:42 09:42 23:35 23:55 03:17 - - 00:12 00:02 03:42
Maximum _ 10,0 C 93 % 1026,8 hPa 0,0 l/m 16,9 km/h
W-SW (3 Bft)
- - 5,0 C 6,2 C 40,6 km/h
SW (6 Bft)
Durchschnitt _ 2,2 C 80 % 1020,8 hPa #0,0 l/m 9,3 km/h (2 Bft) W-SW - -1,0 C -4,1 C 12,0 km/h (2 Bft)